sensor_id;sensor_type;location;lat;lon;timestamp;temperature;humidity
5919;DHT22;2985;48.142;16.344;2022-08-01T00:03:31;21.50;98.80
5919;DHT22;2985;48.142;16.344;2022-08-01T00:08:25;21.40;99.10
5919;DHT22;2985;48.142;16.344;2022-08-01T00:13:15;21.40;98.90
5919;DHT22;2985;48.142;16.344;2022-08-01T00:18:06;21.30;99.30
5919;DHT22;2985;48.142;16.344;2022-08-01T00:22:57;21.30;99.50
5919;DHT22;2985;48.142;16.344;2022-08-01T00:27:47;21.20;99.90
5919;DHT22;2985;48.142;16.344;2022-08-01T00:32:38;21.10;99.90
5919;DHT22;2985;48.142;16.344;2022-08-01T00:37:29;21.00;99.90
5919;DHT22;2985;48.142;16.344;2022-08-01T00:42:20;21.00;99.90
5919;DHT22;2985;48.142;16.344;2022-08-01T00:47:10;20.90;99.90
5919;DHT22;2985;48.142;16.344;2022-08-01T00:52:03;20.90;99.90
5919;DHT22;2985;48.142;16.344;2022-08-01T00:56:54;20.90;99.90
5919;DHT22;2985;48.142;16.344;2022-08-01T01:01:46;20.90;99.90
5919;DHT22;2985;48.142;16.344;2022-08-01T01:06:44;20.90;99.90
5919;DHT22;2985;48.142;16.344;2022-08-01T01:16:58;20.80;99.90
5919;DHT22;2985;48.142;16.344;2022-08-01T01:22:08;20.90;99.90
5919;DHT22;2985;48.142;16.344;2022-08-01T01:32:07;21.20;99.90
5919;DHT22;2985;48.142;16.344;2022-08-01T01:37:01;21.30;99.90
5919;DHT22;2985;48.142;16.344;2022-08-01T01:41:54;21.30;99.90
5919;DHT22;2985;48.142;16.344;2022-08-01T01:46:45;21.20;99.90
5919;DHT22;2985;48.142;16.344;2022-08-01T01:51:38;21.30;99.90
5919;DHT22;2985;48.142;16.344;2022-08-01T01:56:30;21.30;99.90
5919;DHT22;2985;48.142;16.344;2022-08-01T02:01:23;21.30;99.90
5919;DHT22;2985;48.142;16.344;2022-08-01T02:06:16;21.30;99.90
5919;DHT22;2985;48.142;16.344;2022-08-01T02:16:01;21.30;99.90
5919;DHT22;2985;48.142;16.344;2022-08-01T02:20:54;21.30;99.90
5919;DHT22;2985;48.142;16.344;2022-08-01T02:25:52;21.30;99.90
5919;DHT22;2985;48.142;16.344;2022-08-01T02:30:47;21.20;99.90
5919;DHT22;2985;48.142;16.344;2022-08-01T02:35:41;21.30;99.90
5919;DHT22;2985;48.142;16.344;2022-08-01T02:40:33;21.30;99.90
5919;DHT22;2985;48.142;16.344;2022-08-01T02:45:26;21.20;99.90
5919;DHT22;2985;48.142;16.344;2022-08-01T02:50:18;21.30;99.90
5919;DHT22;2985;48.142;16.344;2022-08-01T02:55:09;21.30;99.90
5919;DHT22;2985;48.142;16.344;2022-08-01T03:00:01;21.30;99.90
5919;DHT22;2985;48.142;16.344;2022-08-01T03:04:52;21.20;99.90
5919;DHT22;2985;48.142;16.344;2022-08-01T03:09:45;21.20;99.90
5919;DHT22;2985;48.142;16.344;2022-08-01T03:14:39;21.20;99.90
5919;DHT22;2985;48.142;16.344;2022-08-01T03:19:31;21.20;99.90
5919;DHT22;2985;48.142;16.344;2022-08-01T03:24:25;21.20;99.90
5919;DHT22;2985;48.142;16.344;2022-08-01T03:29:21;21.20;99.90
5919;DHT22;2985;48.142;16.344;2022-08-01T03:34:15;21.20;99.90
5919;DHT22;2985;48.142;16.344;2022-08-01T03:39:08;21.20;99.90
5919;DHT22;2985;48.142;16.344;2022-08-01T03:44:15;21.20;99.90
5919;DHT22;2985;48.142;16.344;2022-08-01T03:49:11;21.20;99.90
5919;DHT22;2985;48.142;16.344;2022-08-01T03:54:05;21.30;99.90
5919;DHT22;2985;48.142;16.344;2022-08-01T03:58:58;21.30;99.90
5919;DHT22;2985;48.142;16.344;2022-08-01T04:03:49;21.30;99.90
5919;DHT22;2985;48.142;16.344;2022-08-01T04:08:40;21.40;99.90
5919;DHT22;2985;48.142;16.344;2022-08-01T04:13:32;21.50;99.90
5919;DHT22;2985;48.142;16.344;2022-08-01T04:18:23;21.50;99.90
5919;DHT22;2985;48.142;16.344;2022-08-01T04:23:22;21.50;99.90
5919;DHT22;2985;48.142;16.344;2022-08-01T04:28:16;21.50;99.90
5919;DHT22;2985;48.142;16.344;2022-08-01T04:33:08;21.50;99.90
5919;DHT22;2985;48.142;16.344;2022-08-01T04:38:01;21.60;99.90
5919;DHT22;2985;48.142;16.344;2022-08-01T04:42:53;21.60;99.90
5919;DHT22;2985;48.142;16.344;2022-08-01T04:47:44;21.60;99.90
5919;DHT22;2985;48.142;16.344;2022-08-01T04:52:36;21.60;99.90
5919;DHT22;2985;48.142;16.344;2022-08-01T04:57:27;21.70;99.90
5919;DHT22;2985;48.142;16.344;2022-08-01T05:02:18;21.80;99.90
5919;DHT22;2985;48.142;16.344;2022-08-01T05:07:09;21.80;99.90
5919;DHT22;2985;48.142;16.344;2022-08-01T05:12:01;21.90;99.90
5919;DHT22;2985;48.142;16.344;2022-08-01T05:16:53;22.00;99.90
5919;DHT22;2985;48.142;16.344;2022-08-01T05:21:44;22.00;99.90
5919;DHT22;2985;48.142;16.344;2022-08-01T05:26:35;22.10;99.90
5919;DHT22;2985;48.142;16.344;2022-08-01T05:31:26;22.20;99.90
5919;DHT22;2985;48.142;16.344;2022-08-01T05:36:17;22.20;99.90
5919;DHT22;2985;48.142;16.344;2022-08-01T05:41:07;22.30;99.90
5919;DHT22;2985;48.142;16.344;2022-08-01T05:45:58;22.40;99.90
5919;DHT22;2985;48.142;16.344;2022-08-01T05:50:49;22.40;99.90
5919;DHT22;2985;48.142;16.344;2022-08-01T05:55:40;22.60;99.90
5919;DHT22;2985;48.142;16.344;2022-08-01T06:00:31;22.60;99.90
5919;DHT22;2985;48.142;16.344;2022-08-01T06:05:22;22.70;99.90
5919;DHT22;2985;48.142;16.344;2022-08-01T06:10:12;22.70;99.90
5919;DHT22;2985;48.142;16.344;2022-08-01T06:15:04;22.80;99.90
5919;DHT22;2985;48.142;16.344;2022-08-01T06:19:56;22.80;99.90
5919;DHT22;2985;48.142;16.344;2022-08-01T06:24:47;22.90;99.90
5919;DHT22;2985;48.142;16.344;2022-08-01T06:29:38;23.00;99.90
5919;DHT22;2985;48.142;16.344;2022-08-01T06:34:29;23.00;99.90
5919;DHT22;2985;48.142;16.344;2022-08-01T06:39:20;23.30;99.90
5919;DHT22;2985;48.142;16.344;2022-08-01T06:44:10;23.40;99.90
5919;DHT22;2985;48.142;16.344;2022-08-01T06:49:01;23.50;99.90
5919;DHT22;2985;48.142;16.344;2022-08-01T06:53:52;23.70;99.90
5919;DHT22;2985;48.142;16.344;2022-08-01T06:58:44;23.90;99.80
5919;DHT22;2985;48.142;16.344;2022-08-01T07:03:35;23.90;99.20
5919;DHT22;2985;48.142;16.344;2022-08-01T07:08:26;24.30;98.70
5919;DHT22;2985;48.142;16.344;2022-08-01T07:13:17;24.70;98.10
5919;DHT22;2985;48.142;16.344;2022-08-01T07:18:11;24.80;98.00
5919;DHT22;2985;48.142;16.344;2022-08-01T07:23:02;24.80;97.80
5919;DHT22;2985;48.142;16.344;2022-08-01T07:27:53;24.90;97.50
5919;DHT22;2985;48.142;16.344;2022-08-01T07:32:44;25.10;97.40
5919;DHT22;2985;48.142;16.344;2022-08-01T07:37:34;25.00;96.70
5919;DHT22;2985;48.142;16.344;2022-08-01T07:42:25;25.00;96.80
5919;DHT22;2985;48.142;16.344;2022-08-01T07:47:16;24.90;96.70
5919;DHT22;2985;48.142;16.344;2022-08-01T07:52:07;24.70;96.70
5919;DHT22;2985;48.142;16.344;2022-08-01T07:56:58;24.80;96.60
5919;DHT22;2985;48.142;16.344;2022-08-01T08:01:50;24.70;96.70
5919;DHT22;2985;48.142;16.344;2022-08-01T08:06:41;24.70;96.90
5919;DHT22;2985;48.142;16.344;2022-08-01T08:11:32;24.60;96.30
5919;DHT22;2985;48.142;16.344;2022-08-01T08:16:22;24.60;94.50
5919;DHT22;2985;48.142;16.344;2022-08-01T08:21:13;24.60;93.90
5919;DHT22;2985;48.142;16.344;2022-08-01T08:26:04;24.60;92.90
5919;DHT22;2985;48.142;16.344;2022-08-01T08:30:55;24.80;93.10
5919;DHT22;2985;48.142;16.344;2022-08-01T08:35:45;25.00;92.10
5919;DHT22;2985;48.142;16.344;2022-08-01T08:40:37;25.30;91.50
5919;DHT22;2985;48.142;16.344;2022-08-01T08:45:27;26.00;91.50
5919;DHT22;2985;48.142;16.344;2022-08-01T08:50:18;26.30;91.00
5919;DHT22;2985;48.142;16.344;2022-08-01T08:55:10;26.20;90.30
5919;DHT22;2985;48.142;16.344;2022-08-01T09:00:02;26.00;88.90
5919;DHT22;2985;48.142;16.344;2022-08-01T09:04:53;26.20;89.80
5919;DHT22;2985;48.142;16.344;2022-08-01T09:09:44;26.50;90.00
5919;DHT22;2985;48.142;16.344;2022-08-01T09:14:44;26.40;87.80
5919;DHT22;2985;48.142;16.344;2022-08-01T09:19:45;26.30;87.50
5919;DHT22;2985;48.142;16.344;2022-08-01T09:24:39;26.20;88.30
5919;DHT22;2985;48.142;16.344;2022-08-01T09:29:31;26.60;87.70
5919;DHT22;2985;48.142;16.344;2022-08-01T09:34:29;26.50;88.20
5919;DHT22;2985;48.142;16.344;2022-08-01T09:39:26;26.70;87.20
5919;DHT22;2985;48.142;16.344;2022-08-01T09:44:17;26.70;87.20
5919;DHT22;2985;48.142;16.344;2022-08-01T09:49:09;26.50;87.50
5919;DHT22;2985;48.142;16.344;2022-08-01T09:54:00;26.90;86.90
5919;DHT22;2985;48.142;16.344;2022-08-01T09:59:00;27.20;86.80
5919;DHT22;2985;48.142;16.344;2022-08-01T10:04:12;27.00;85.50
5919;DHT22;2985;48.142;16.344;2022-08-01T10:09:03;26.80;86.10
5919;DHT22;2985;48.142;16.344;2022-08-01T10:13:55;27.10;84.00
5919;DHT22;2985;48.142;16.344;2022-08-01T10:18:46;27.20;82.50
5919;DHT22;2985;48.142;16.344;2022-08-01T10:23:38;26.80;83.30
5919;DHT22;2985;48.142;16.344;2022-08-01T10:28:30;26.60;84.70
5919;DHT22;2985;48.142;16.344;2022-08-01T10:33:22;27.10;84.80
5919;DHT22;2985;48.142;16.344;2022-08-01T10:38:14;27.60;84.50
5919;DHT22;2985;48.142;16.344;2022-08-01T10:43:05;27.50;83.70
5919;DHT22;2985;48.142;16.344;2022-08-01T10:48:04;27.70;82.20
5919;DHT22;2985;48.142;16.344;2022-08-01T10:58:07;27.80;80.80
5919;DHT22;2985;48.142;16.344;2022-08-01T11:03:01;27.60;80.10
5919;DHT22;2985;48.142;16.344;2022-08-01T11:07:54;28.10;81.30
5919;DHT22;2985;48.142;16.344;2022-08-01T11:12:45;28.00;81.20
5919;DHT22;2985;48.142;16.344;2022-08-01T11:17:37;28.20;81.50
5919;DHT22;2985;48.142;16.344;2022-08-01T11:22:28;28.20;79.00
5919;DHT22;2985;48.142;16.344;2022-08-01T11:27:20;28.60;79.20
5919;DHT22;2985;48.142;16.344;2022-08-01T11:32:25;28.90;79.10
5919;DHT22;2985;48.142;16.344;2022-08-01T11:37:27;28.90;77.50
5919;DHT22;2985;48.142;16.344;2022-08-01T11:42:18;28.70;76.40
5919;DHT22;2985;48.142;16.344;2022-08-01T11:47:10;28.70;75.70
5919;DHT22;2985;48.142;16.344;2022-08-01T11:52:17;28.90;76.30
5919;DHT22;2985;48.142;16.344;2022-08-01T11:57:12;29.00;74.20
5919;DHT22;2985;48.142;16.344;2022-08-01T12:02:03;28.80;73.50
5919;DHT22;2985;48.142;16.344;2022-08-01T12:06:54;29.00;71.70
5919;DHT22;2985;48.142;16.344;2022-08-01T12:11:46;29.00;71.60
5919;DHT22;2985;48.142;16.344;2022-08-01T12:16:37;28.80;71.90
5919;DHT22;2985;48.142;16.344;2022-08-01T12:21:28;28.40;72.60
5919;DHT22;2985;48.142;16.344;2022-08-01T12:26:18;28.00;73.80
5919;DHT22;2985;48.142;16.344;2022-08-01T12:31:09;27.80;74.90
5919;DHT22;2985;48.142;16.344;2022-08-01T12:36:00;27.80;77.40
5919;DHT22;2985;48.142;16.344;2022-08-01T12:40:51;27.80;76.30
5919;DHT22;2985;48.142;16.344;2022-08-01T12:45:43;27.40;74.10
5919;DHT22;2985;48.142;16.344;2022-08-01T12:50:37;27.40;74.40
5919;DHT22;2985;48.142;16.344;2022-08-01T12:55:28;27.30;74.40
5919;DHT22;2985;48.142;16.344;2022-08-01T13:00:24;27.10;75.70
5919;DHT22;2985;48.142;16.344;2022-08-01T13:05:16;27.10;76.80
5919;DHT22;2985;48.142;16.344;2022-08-01T13:10:07;26.90;79.00
5919;DHT22;2985;48.142;16.344;2022-08-01T13:14:58;26.70;81.20
5919;DHT22;2985;48.142;16.344;2022-08-01T13:19:49;26.60;83.30
5919;DHT22;2985;48.142;16.344;2022-08-01T13:24:42;26.20;86.50
5919;DHT22;2985;48.142;16.344;2022-08-01T13:29:38;26.70;87.20
5919;DHT22;2985;48.142;16.344;2022-08-01T13:34:34;27.30;87.50
5919;DHT22;2985;48.142;16.344;2022-08-01T13:39:25;27.80;84.60
5919;DHT22;2985;48.142;16.344;2022-08-01T13:44:31;28.20;83.70
5919;DHT22;2985;48.142;16.344;2022-08-01T13:49:22;28.50;78.00
5919;DHT22;2985;48.142;16.344;2022-08-01T13:54:13;27.90;75.90
5919;DHT22;2985;48.142;16.344;2022-08-01T13:59:03;28.40;75.60
5919;DHT22;2985;48.142;16.344;2022-08-01T14:03:54;28.20;75.00
5919;DHT22;2985;48.142;16.344;2022-08-01T14:08:45;28.60;74.80
5919;DHT22;2985;48.142;16.344;2022-08-01T14:13:36;28.60;73.60
5919;DHT22;2985;48.142;16.344;2022-08-01T14:18:31;28.90;72.90
5919;DHT22;2985;48.142;16.344;2022-08-01T14:23:22;28.70;72.50
5919;DHT22;2985;48.142;16.344;2022-08-01T14:28:12;28.60;73.40
5919;DHT22;2985;48.142;16.344;2022-08-01T14:33:03;28.90;73.40
5919;DHT22;2985;48.142;16.344;2022-08-01T14:37:54;28.60;72.30
5919;DHT22;2985;48.142;16.344;2022-08-01T14:42:45;28.50;71.70
5919;DHT22;2985;48.142;16.344;2022-08-01T14:47:41;28.50;72.40
5919;DHT22;2985;48.142;16.344;2022-08-01T14:52:33;28.90;71.50
5919;DHT22;2985;48.142;16.344;2022-08-01T14:57:24;29.10;72.00
5919;DHT22;2985;48.142;16.344;2022-08-01T15:02:15;28.80;71.20
5919;DHT22;2985;48.142;16.344;2022-08-01T15:07:07;29.00;70.50
5919;DHT22;2985;48.142;16.344;2022-08-01T15:11:58;29.40;70.30
5919;DHT22;2985;48.142;16.344;2022-08-01T15:16:50;29.70;70.20
5919;DHT22;2985;48.142;16.344;2022-08-01T15:21:40;32.00;69.00
5919;DHT22;2985;48.142;16.344;2022-08-01T15:26:31;33.20;63.80
5919;DHT22;2985;48.142;16.344;2022-08-01T15:31:22;35.00;60.60
5919;DHT22;2985;48.142;16.344;2022-08-01T15:36:13;34.20;60.10
5919;DHT22;2985;48.142;16.344;2022-08-01T15:41:04;32.90;60.90
5919;DHT22;2985;48.142;16.344;2022-08-01T15:45:54;34.10;60.40
5919;DHT22;2985;48.142;16.344;2022-08-01T15:50:45;32.00;63.00
5919;DHT22;2985;48.142;16.344;2022-08-01T15:55:36;31.20;65.10
5919;DHT22;2985;48.142;16.344;2022-08-01T16:00:27;31.40;65.30
5919;DHT22;2985;48.142;16.344;2022-08-01T16:05:18;30.00;66.40
5919;DHT22;2985;48.142;16.344;2022-08-01T16:10:09;30.10;67.10
5919;DHT22;2985;48.142;16.344;2022-08-01T16:15:00;29.70;68.20
5919;DHT22;2985;48.142;16.344;2022-08-01T16:19:50;29.20;69.20
5919;DHT22;2985;48.142;16.344;2022-08-01T16:24:42;29.50;69.50
5919;DHT22;2985;48.142;16.344;2022-08-01T16:29:32;29.20;69.80
5919;DHT22;2985;48.142;16.344;2022-08-01T16:34:24;28.60;71.30
5919;DHT22;2985;48.142;16.344;2022-08-01T16:39:15;28.30;70.80
5919;DHT22;2985;48.142;16.344;2022-08-01T16:44:06;28.30;71.50
5919;DHT22;2985;48.142;16.344;2022-08-01T16:48:57;28.40;71.00
5919;DHT22;2985;48.142;16.344;2022-08-01T16:53:47;28.30;70.70
5919;DHT22;2985;48.142;16.344;2022-08-01T16:58:38;28.10;70.30
5919;DHT22;2985;48.142;16.344;2022-08-01T17:03:29;27.80;71.90
5919;DHT22;2985;48.142;16.344;2022-08-01T17:13:11;27.70;72.20
5919;DHT22;2985;48.142;16.344;2022-08-01T17:18:02;27.90;72.70
5919;DHT22;2985;48.142;16.344;2022-08-01T17:22:54;27.50;73.40
5919;DHT22;2985;48.142;16.344;2022-08-01T17:27:45;27.30;74.00
5919;DHT22;2985;48.142;16.344;2022-08-01T17:32:36;27.40;73.90
5919;DHT22;2985;48.142;16.344;2022-08-01T17:37:29;27.40;73.40
5919;DHT22;2985;48.142;16.344;2022-08-01T17:42:19;27.20;73.40
5919;DHT22;2985;48.142;16.344;2022-08-01T17:47:10;27.20;74.10
5919;DHT22;2985;48.142;16.344;2022-08-01T17:52:01;27.00;74.70
5919;DHT22;2985;48.142;16.344;2022-08-01T17:56:52;26.80;75.40
5919;DHT22;2985;48.142;16.344;2022-08-01T18:01:42;26.50;76.20
5919;DHT22;2985;48.142;16.344;2022-08-01T18:06:33;26.40;76.90
5919;DHT22;2985;48.142;16.344;2022-08-01T18:11:26;26.30;77.90
5919;DHT22;2985;48.142;16.344;2022-08-01T18:16:17;26.20;78.50
5919;DHT22;2985;48.142;16.344;2022-08-01T18:21:09;26.10;79.00
5919;DHT22;2985;48.142;16.344;2022-08-01T18:26:00;25.90;79.30
5919;DHT22;2985;48.142;16.344;2022-08-01T18:30:54;25.70;79.80
5919;DHT22;2985;48.142;16.344;2022-08-01T18:35:45;25.60;80.90
5919;DHT22;2985;48.142;16.344;2022-08-01T18:40:36;25.50;81.50
5919;DHT22;2985;48.142;16.344;2022-08-01T18:45:27;25.40;82.10
5919;DHT22;2985;48.142;16.344;2022-08-01T18:50:18;25.30;82.60
5919;DHT22;2985;48.142;16.344;2022-08-01T18:55:09;25.20;83.80
5919;DHT22;2985;48.142;16.344;2022-08-01T19:00:00;25.10;84.70
5919;DHT22;2985;48.142;16.344;2022-08-01T19:04:51;25.00;85.90
5919;DHT22;2985;48.142;16.344;2022-08-01T19:09:44;24.90;87.20
5919;DHT22;2985;48.142;16.344;2022-08-01T19:14:35;24.80;87.80
5919;DHT22;2985;48.142;16.344;2022-08-01T19:19:25;24.70;88.80
5919;DHT22;2985;48.142;16.344;2022-08-01T19:24:16;24.70;89.20
5919;DHT22;2985;48.142;16.344;2022-08-01T19:29:14;24.60;90.30
5919;DHT22;2985;48.142;16.344;2022-08-01T19:34:06;24.60;90.20
5919;DHT22;2985;48.142;16.344;2022-08-01T19:38:58;24.50;90.10
5919;DHT22;2985;48.142;16.344;2022-08-01T19:43:49;24.40;91.10
5919;DHT22;2985;48.142;16.344;2022-08-01T19:48:40;24.50;90.90
5919;DHT22;2985;48.142;16.344;2022-08-01T19:53:35;24.30;91.80
5919;DHT22;2985;48.142;16.344;2022-08-01T19:58:27;24.20;92.00
5919;DHT22;2985;48.142;16.344;2022-08-01T20:03:19;24.20;92.80
5919;DHT22;2985;48.142;16.344;2022-08-01T20:08:11;24.00;93.30
5919;DHT22;2985;48.142;16.344;2022-08-01T20:13:04;24.00;94.20
5919;DHT22;2985;48.142;16.344;2022-08-01T20:17:57;23.90;94.70
5919;DHT22;2985;48.142;16.344;2022-08-01T20:22:52;23.90;95.40
5919;DHT22;2985;48.142;16.344;2022-08-01T20:27:43;23.80;95.90
5919;DHT22;2985;48.142;16.344;2022-08-01T20:32:36;23.60;96.20
5919;DHT22;2985;48.142;16.344;2022-08-01T20:37:33;23.60;95.90
5919;DHT22;2985;48.142;16.344;2022-08-01T20:42:30;23.80;95.40
5919;DHT22;2985;48.142;16.344;2022-08-01T20:47:21;23.80;95.00
5919;DHT22;2985;48.142;16.344;2022-08-01T20:52:13;23.80;95.00
5919;DHT22;2985;48.142;16.344;2022-08-01T20:57:20;23.80;95.30
5919;DHT22;2985;48.142;16.344;2022-08-01T21:02:45;23.80;95.40
5919;DHT22;2985;48.142;16.344;2022-08-01T21:07:54;23.80;95.80
5919;DHT22;2985;48.142;16.344;2022-08-01T21:12:59;23.70;96.10
5919;DHT22;2985;48.142;16.344;2022-08-01T21:18:00;23.70;97.00
5919;DHT22;2985;48.142;16.344;2022-08-01T21:22:59;23.60;98.20
5919;DHT22;2985;48.142;16.344;2022-08-01T21:27:51;23.40;98.20
5919;DHT22;2985;48.142;16.344;2022-08-01T21:32:46;23.20;99.90
5919;DHT22;2985;48.142;16.344;2022-08-01T21:37:38;23.00;99.90
5919;DHT22;2985;48.142;16.344;2022-08-01T21:42:31;23.10;99.20
5919;DHT22;2985;48.142;16.344;2022-08-01T21:47:23;23.00;99.90
5919;DHT22;2985;48.142;16.344;2022-08-01T21:52:16;22.90;99.90
5919;DHT22;2985;48.142;16.344;2022-08-01T22:02:28;22.80;99.90
5919;DHT22;2985;48.142;16.344;2022-08-01T22:07:29;22.70;99.90
5919;DHT22;2985;48.142;16.344;2022-08-01T22:12:22;22.70;99.90
5919;DHT22;2985;48.142;16.344;2022-08-01T22:17:18;22.70;99.90
5919;DHT22;2985;48.142;16.344;2022-08-01T22:22:09;22.90;99.90
5919;DHT22;2985;48.142;16.344;2022-08-01T22:27:01;22.80;99.90
5919;DHT22;2985;48.142;16.344;2022-08-01T22:31:54;22.80;99.90
5919;DHT22;2985;48.142;16.344;2022-08-01T22:36:47;22.60;99.90
5919;DHT22;2985;48.142;16.344;2022-08-01T22:41:40;22.60;99.90
5919;DHT22;2985;48.142;16.344;2022-08-01T22:46:55;22.50;99.90
5919;DHT22;2985;48.142;16.344;2022-08-01T22:57:01;22.20;99.90
5919;DHT22;2985;48.142;16.344;2022-08-01T23:01:53;22.10;99.90
5919;DHT22;2985;48.142;16.344;2022-08-01T23:06:46;22.00;99.90
5919;DHT22;2985;48.142;16.344;2022-08-01T23:11:39;22.00;99.90
5919;DHT22;2985;48.142;16.344;2022-08-01T23:16:30;22.00;99.90
5919;DHT22;2985;48.142;16.344;2022-08-01T23:21:21;22.00;99.90
5919;DHT22;2985;48.142;16.344;2022-08-01T23:26:12;22.00;99.90
5919;DHT22;2985;48.142;16.344;2022-08-01T23:31:04;22.10;99.90
5919;DHT22;2985;48.142;16.344;2022-08-01T23:35:56;22.00;99.90
5919;DHT22;2985;48.142;16.344;2022-08-01T23:40:47;22.00;99.90
5919;DHT22;2985;48.142;16.344;2022-08-01T23:45:39;22.00;99.90
5919;DHT22;2985;48.142;16.344;2022-08-01T23:50:30;22.00;99.90
5919;DHT22;2985;48.142;16.344;2022-08-01T23:55:21;21.90;99.90
